Aniak, AK

9:47 AM AKDT on August 20, 2014 (GMT -0800)
Sparrevohn | Change Station
CLOSE
Current Station
Airport
Location: Sparrevohn,
Elevation: 1588 ft
Nearby Weather Stations

Elev 1588 ft 61.10 °N, 155.57 °W | Updated 52 minutes ago

Mostly Cloudy
Mostly Cloudy
50 °F
Feels Like 50 °F
N
0
Wind Variable Wind from North

Today
High -- | Low -- °F
--% Chance of Precip.
Yesterday
High -- | Low -- °F
Precip. -- in
6:58 AM 10:22 PM
Waning Crescent, 20% visible
Pressure 30.12 in
Visibility 10.0 miles
Clouds Few 900 ft
Mostly Cloudy 1300 ft
Mostly Cloudy 4500 ft
Dew Point 47 °F
Humidity 92%
Rainfall 0.00 in
Snow Depth Not available.
UV 0 out of 12
Pollen Not available.
Air Quality Not available.
Flu Activity Not available.
METAR PASV 201655Z AUTO 00000KT 10SM FEW009 BKN013 BKN045 10/09 A3012 RMK AO2 SLP198 T00980085

More Conditions Fewer Conditions

Pressure 30.12 in
Visibility 10.0 miles
Clouds Few 900 ft
Mostly Cloudy 1300 ft
Mostly Cloudy 4500 ft
Dew Point 47 °F
Humidity 92%
Rainfall 0.00 in
Snow Depth Not available.
UV 0 out of 12
Pollen Not available.
Air Quality Not available.
Flu Activity Not available.
METAR PASV 201655Z AUTO 00000KT 10SM FEW009 BKN013 BKN045 10/09 A3012 RMK AO2 SLP198 T00980085

More Conditions Fewer Conditions

10-Day Weather Forecast

Almanac

Astronomy

Aug. 20, 2014 Rise Set
Actual Time 6:58 AM AKDT 10:22 PM AKDT
Civil Twilight 6:05 AM AKDT 11:14 PM AKDT
Nautical Twilight 4:47 AM AKDT 12:30 AM AKDT
Astronomical Twilight 3:13 AM AKDT 2:08 AM AKDT
Moon 2:13 AM AKDT 7:47 PM AKDT
Length of Visible Light 17h 09m
Length of Day
15h 24m
Tomorrow will be 5m 43s shorter.
Waning Crescent, 20% of the Moon is Illuminated
Today
Waning Crescent
Aug 25
New
Sep 2
First Quarter
Sep 8
Full
Sep 15
Last Quarter

Today's Extremes

State Highs State Lows

Community

WunderPhotos

Upload Photos

1,745,699 photos uploaded!

WunderBlogs® & News

By Dr. Jeff Masters
Director of Meteorology, Weather Underground
By Kari Strenfel
Meteorologist, Weather Underground
By Christopher C. Burt
Weather Historian, Weather Underground
August 20, 2014
August 20, 2014
August 20, 2014

Nearby

Snow Depth

Station Depth Elevation
Rocky Point 4 in 500 ft
Mcneil Canyon 1 in 1320 ft
Port Graham 0 in 300 ft
Susitna Valley High 109 in 375 ft
Point Mackenzie 1 in 200 ft

Earthquake Activity

City Distance Mag. Time & Date
No recent earthquake activity has been reported nearby.
Minimum magnitude displayed is 2.5.

Coastal Water Temperatures

Place Temperature
No Stations Reporting

Nearby Weather Stations